Terminal Aerodrome Forecast
Issued by NWS

Home | Current Version | Previous Version | Text Only | Print | Product List | Glossary On
Versions: 1 2 3 4 5 6 7 8 9 10 11 12 13 14 15 16 17 18 19 20 21 22 23 24 25 26 27 28 29 30 31 32 33 34 35 36 37 38 39 40 41 42 43 44 45 46 47 48 49 50
000
FTUS43 KMKX 012003 AAB
TAFUES
TAF AMD
KUES 012003Z 0120/0218 13014KT P6SM SCT200
     FM012300 17014G22KT P6SM FEW120
     FM020300 19015G20KT P6SM SCT150 WS015/20050KT
     FM021000 20015G22KT 5SM -SHRA SCT015 OVC035
      TEMPO 0210/0213 3SM -TSRA BKN015CB OVC030
     FM021300 22010KT P6SM -SHRA OVC010
     FM021700 30010KT P6SM -SHRA BKN035=

USA.gov is the U.S. government's official web portal to all federal, state and local government web resources and services.